Time;durP1;ratioP1;P1;durP2;ratioP2;P2;SDS_P1;SDS_P2;PMS_P1;PMS_P2;Temp;Humidity;BMP_temperature;BMP_pressure;BME280_temperature;BME280_humidity;BME280_pressure;Samples;Min_cycle;Max_cycle;Signal;HPM_P1;HPM_P2
2023/04/19 00:00:08;;;;;;;14.30;11.13;;;11.40;99.90;;;;;;4990167;28;20537;-44
2023/04/19 00:02:34;;;;;;;14.27;11.65;;;11.40;99.90;;;;;;4976716;28;20182;-45
2023/04/19 00:05:00;;;;;;;16.42;11.43;;;11.40;99.90;;;;;;4970901;28;20208;-44
2023/04/19 00:07:26;;;;;;;15.20;12.00;;;11.40;99.90;;;;;;4970508;28;20228;-45
2023/04/19 00:09:52;;;;;;;15.07;12.43;;;11.40;99.90;;;;;;4970190;28;20229;-44
2023/04/19 00:12:17;;;;;;;14.80;12.45;;;11.50;99.90;;;;;;4981124;28;20180;-44
2023/04/19 00:14:43;;;;;;;15.07;12.65;;;11.50;99.90;;;;;;4989654;28;20176;-45
2023/04/19 00:17:10;;;;;;;14.85;12.55;;;11.40;99.90;;;;;;4989572;28;20200;-44
2023/04/19 00:19:36;;;;;;;16.40;13.35;;;11.40;99.90;;;;;;4990213;28;20181;-45
2023/04/19 00:22:02;;;;;;;14.55;12.05;;;11.40;99.90;;;;;;4980884;28;20181;-44
2023/04/19 00:24:28;;;;;;;15.38;12.13;;;11.40;99.90;;;;;;4970277;28;20250;-45
2023/04/19 00:26:54;;;;;;;15.07;11.45;;;;;;;;;;4970670;28;20196;-45
2023/04/19 00:29:19;;;;;;;14.05;11.52;;;11.40;99.90;;;;;;4970536;28;20217;-45
2023/04/19 00:31:45;;;;;;;17.70;12.57;;;11.30;99.90;;;;;;4971396;28;20607;-45
2023/04/19 00:34:10;;;;;;;14.50;11.02;;;11.40;99.90;;;;;;4970251;28;20223;-44
2023/04/19 00:36:36;;;;;;;15.90;12.32;;;11.30;99.90;;;;;;4969309;28;20256;-45
2023/04/19 00:39:02;;;;;;;15.05;12.45;;;11.40;99.90;;;;;;4970198;28;20222;-45
2023/04/19 00:41:27;;;;;;;13.35;11.70;;;11.40;99.90;;;;;;4974022;28;20187;-45
2023/04/19 00:43:53;;;;;;;15.18;12.00;;;11.40;99.90;;;;;;4989552;28;20251;-44
2023/04/19 00:46:20;;;;;;;14.32;11.77;;;11.30;99.90;;;;;;4989519;28;20175;-44
2023/04/19 00:48:46;;;;;;;15.68;11.98;;;11.40;99.90;;;;;;4989710;28;20220;-45
2023/04/19 00:51:11;;;;;;;14.07;11.52;;;11.40;99.90;;;;;;4987563;28;20164;-44
2023/04/19 00:53:39;;;;;;;16.45;11.93;;;11.40;99.90;;;;;;4969965;28;20252;-44
2023/04/19 00:56:05;;;;;;;14.27;12.00;;;11.30;99.90;;;;;;4970657;28;20181;-46
2023/04/19 00:58:31;;;;;;;16.50;11.48;;;11.40;99.90;;;;;;4969936;28;20182;-44
2023/04/19 01:00:58;;;;;;;17.25;12.80;;;11.40;99.90;;;;;;4970185;28;20205;-45
2023/04/19 01:03:26;;;;;;;18.85;12.32;;;11.40;99.90;;;;;;4969972;28;20679;-44
2023/04/19 01:05:51;;;;;;;16.33;12.25;;;11.40;99.90;;;;;;4970062;28;20174;-45
2023/04/19 01:08:17;;;;;;;16.05;12.10;;;11.20;99.90;;;;;;4969720;28;20212;-44
2023/04/19 01:10:43;;;;;;;17.92;12.00;;;11.20;99.90;;;;;;4969889;28;20181;-44
2023/04/19 01:13:08;;;;;;;18.60;12.52;;;;;;;;;;4986470;28;20184;-45
2023/04/19 01:15:35;;;;;;;14.13;12.07;;;11.30;99.90;;;;;;4989617;28;20169;-44
2023/04/19 01:18:01;;;;;;;17.48;12.63;;;11.30;99.90;;;;;;4989148;28;20157;-45
2023/04/19 01:20:26;;;;;;;16.80;12.93;;;11.10;99.90;;;;;;4987423;28;20164;-45
2023/04/19 01:22:53;;;;;;;18.08;12.85;;;11.30;99.90;;;;;;4989284;28;20284;-45
2023/04/19 01:25:19;;;;;;;15.95;12.60;;;11.10;99.90;;;;;;4989339;28;20200;-45
2023/04/19 01:27:44;;;;;;;17.77;13.25;;;11.20;99.90;;;;;;4989440;28;20207;-44
2023/04/19 01:30:10;;;;;;;15.80;12.75;;;11.20;99.90;;;;;;4992594;28;20173;-44
2023/04/19 01:32:36;;;;;;;16.90;12.38;;;11.20;99.90;;;;;;4992791;28;20226;-44
2023/04/19 01:35:02;;;;;;;16.27;13.48;;;11.20;99.90;;;;;;4992388;28;20617;-44
2023/04/19 01:37:27;;;;;;;16.73;12.90;;;11.20;99.90;;;;;;4987937;28;20683;-45
2023/04/19 01:39:53;;;;;;;16.33;13.88;;;11.20;99.90;;;;;;4972858;28;20220;-45
2023/04/19 01:42:19;;;;;;;17.70;13.32;;;11.10;99.90;;;;;;4972838;28;20179;-45
2023/04/19 01:44:44;;;;;;;16.40;13.23;;;11.10;99.90;;;;;;4972707;28;20170;-45
2023/04/19 01:47:10;;;;;;;17.20;13.40;;;11.20;99.90;;;;;;4973905;28;20188;-44
2023/04/19 01:49:36;;;;;;;19.58;12.98;;;11.20;99.90;;;;;;4990497;28;20185;-44
2023/04/19 01:52:01;;;;;;;17.52;12.57;;;11.20;99.90;;;;;;4992134;28;20172;-44
2023/04/19 01:54:27;;;;;;;16.13;12.25;;;11.10;99.90;;;;;;4992127;28;20169;-45
2023/04/19 01:56:52;;;;;;;18.15;13.13;;;11.10;99.90;;;;;;4991959;28;20620;-44
2023/04/19 01:59:18;;;;;;;17.35;13.95;;;11.10;99.90;;;;;;4972540;28;20180;-44
2023/04/19 02:01:43;;;;;;;18.23;12.75;;;11.10;99.90;;;;;;4972543;28;20180;-45
2023/04/19 02:04:09;;;;;;;17.10;12.63;;;11.20;99.90;;;;;;4972451;28;20162;-44
2023/04/19 02:06:35;;;;;;;19.02;13.32;;;11.00;99.90;;;;;;4981971;28;20596;-44
2023/04/19 02:09:00;;;;;;;18.63;13.75;;;11.00;99.90;;;;;;4991680;28;20224;-45
2023/04/19 02:11:26;;;;;;;18.15;13.13;;;10.90;99.90;;;;;;4991753;28;20619;-42
2023/04/19 02:13:52;;;;;;;16.30;12.80;;;;;;;;;;4991679;28;20179;-42
2023/04/19 02:16:17;;;;;;;17.52;13.68;;;10.90;99.90;;;;;;4984535;28;20177;-42
2023/04/19 02:18:45;;;;;;;22.52;13.70;;;10.90;99.90;;;;;;4972155;28;20185;-43
2023/04/19 02:21:11;;;;;;;18.88;13.02;;;;;;;;;;4972469;28;20214;-42
2023/04/19 02:23:37;;;;;;;16.58;12.80;;;;;;;;;;4972282;28;20173;-42
2023/04/19 02:26:03;;;;;;;15.35;13.00;;;10.90;99.90;;;;;;4976963;28;20176;-42
2023/04/19 02:28:31;;;;;;;16.92;12.18;;;10.80;99.90;;;;;;4991386;28;20209;-43
2023/04/19 02:30:57;;;;;;;19.88;12.93;;;10.90;99.90;;;;;;4991459;28;20577;-42
2023/04/19 02:33:25;;;;;;;19.05;13.07;;;10.80;99.90;;;;;;4991403;28;20536;-42
2023/04/19 02:35:51;;;;;;;16.65;12.63;;;10.70;99.90;;;;;;4988367;28;20185;-42
2023/04/19 02:38:16;;;;;;;20.10;12.88;;;10.90;99.90;;;;;;4970738;28;20178;-43
2023/04/19 02:40:42;;;;;;;15.68;11.98;;;10.90;99.90;;;;;;4971955;28;20546;-42
2023/04/19 02:43:08;;;;;;;20.15;12.65;;;10.80;99.90;;;;;;4971902;28;20540;-44
2023/04/19 02:45:33;;;;;;;17.10;13.27;;;10.90;99.90;;;;;;4972493;28;20170;-43
2023/04/19 02:47:59;;;;;;;19.80;14.23;;;10.90;99.90;;;;;;4991433;28;20208;-42
2023/04/19 02:50:26;;;;;;;17.48;12.20;;;10.90;99.90;;;;;;4991157;28;20578;-42
2023/04/19 02:52:52;;;;;;;18.90;13.30;;;10.80;99.90;;;;;;4991205;28;20192;-43
2023/04/19 02:55:18;;;;;;;16.75;12.52;;;;;;;;;;5023173;28;20563;-45
2023/04/19 02:57:43;;;;;;;16.92;12.30;;;10.80;99.90;;;;;;4996796;28;20181;-42
2023/04/19 03:00:09;;;;;;;16.50;11.93;;;10.90;99.90;;;;;;4990641;28;20169;-42
2023/04/19 03:02:35;;;;;;;20.23;13.65;;;11.00;99.90;;;;;;4991368;28;20180;-43
2023/04/19 03:05:03;;;;;;;16.45;12.65;;;11.00;99.90;;;;;;4990557;28;20693;-43
2023/04/19 03:07:29;;;;;;;16.85;12.20;;;11.00;99.90;;;;;;4974950;28;20227;-43
2023/04/19 03:09:54;;;;;;;18.38;12.35;;;11.00;99.90;;;;;;4971304;28;20621;-42
2023/04/19 03:12:20;;;;;;;15.05;12.65;;;11.00;99.90;;;;;;4971510;28;20637;-42
2023/04/19 03:14:45;;;;;;;19.15;12.10;;;11.00;99.90;;;;;;4971273;28;20185;-47
2023/04/19 03:17:11;;;;;;;15.13;11.90;;;;;;;;;;4983782;28;20213;-47
2023/04/19 03:19:37;;;;;;;16.17;11.13;;;11.00;99.90;;;;;;4990406;28;20180;-46
2023/04/19 03:22:03;;;;;;;17.88;13.13;;;;;;;;;;4990750;28;20172;-46
2023/04/19 03:24:29;;;;;;;16.73;11.38;;;10.90;99.90;;;;;;4990592;28;20506;-44
2023/04/19 03:26:55;;;;;;;14.98;11.20;;;11.00;99.90;;;;;;4979389;28;20185;-47
2023/04/19 03:29:21;;;;;;;15.93;10.80;;;;;;;;;;4984263;28;20208;-46
2023/04/19 03:31:47;;;;;;;14.77;11.35;;;10.90;99.90;;;;;;4990482;28;20173;-46
2023/04/19 03:34:13;;;;;;;17.17;11.98;;;10.90;99.90;;;;;;4990517;28;20176;-45
2023/04/19 03:36:39;;;;;;;16.70;12.02;;;11.00;99.90;;;;;;4982446;28;20162;-43
2023/04/19 03:39:05;;;;;;;14.82;10.77;;;10.90;99.90;;;;;;4971355;28;20173;-46
2023/04/19 03:41:31;;;;;;;19.85;12.27;;;10.90;99.90;;;;;;4971295;28;20211;-45
2023/04/19 03:43:57;;;;;;;16.30;11.95;;;10.90;99.90;;;;;;4971011;28;20583;-46
2023/04/19 03:46:23;;;;;;;17.52;12.32;;;10.90;99.90;;;;;;4976206;28;20633;-45
2023/04/19 03:48:50;;;;;;;15.65;11.90;;;;;;;;;;4990265;28;20748;-45
2023/04/19 03:51:15;;;;;;;15.68;11.57;;;10.90;99.90;;;;;;4990134;28;20183;-45
2023/04/19 03:53:41;;;;;;;17.35;12.18;;;10.90;99.90;;;;;;4990283;28;20173;-46
2023/04/19 03:56:07;;;;;;;16.00;11.30;;;10.80;99.90;;;;;;4987123;28;20169;-46
2023/04/19 03:58:32;;;;;;;16.52;11.85;;;11.00;99.90;;;;;;4971027;28;20226;-47
2023/04/19 04:00:58;;;;;;;14.85;11.30;;;11.10;99.90;;;;;;4970752;28;20162;-44
2023/04/19 04:03:24;;;;;;;15.88;11.63;;;11.00;99.90;;;;;;4970645;28;20175;-45
2023/04/19 04:05:50;;;;;;;19.15;11.35;;;11.00;99.90;;;;;;4970867;28;20173;-43
2023/04/19 04:08:15;;;;;;;16.88;12.20;;;11.00;99.90;;;;;;4989878;28;20579;-43
2023/04/19 04:10:41;;;;;;;20.45;12.70;;;;;;;;;;4989931;28;20212;-46
2023/04/19 04:13:07;;;;;;;16.33;11.85;;;;;;;;;;4989828;28;20176;-45
2023/04/19 04:15:33;;;;;;;14.40;11.27;;;10.90;99.90;;;;;;4990254;28;20180;-45
2023/04/19 04:17:58;;;;;;;14.65;11.43;;;10.90;99.90;;;;;;4971999;28;20179;-46
2023/04/19 04:20:24;;;;;;;23.20;12.15;;;11.00;99.90;;;;;;4970436;28;20244;-45
2023/04/19 04:22:50;;;;;;;12.32;8.85;;;11.00;99.90;;;;;;4970328;28;20165;-46
2023/04/19 04:25:15;;;;;;;19.27;12.60;;;11.00;99.90;;;;;;4970417;28;20196;-46
2023/04/19 04:27:42;;;;;;;17.15;12.43;;;11.00;99.90;;;;;;4985079;28;20200;-46
2023/04/19 04:30:09;;;;;;;14.93;11.55;;;10.90;99.90;;;;;;4989352;28;20185;-46
2023/04/19 04:32:36;;;;;;;16.13;11.90;;;;;;;;;;4989973;28;20659;-43
2023/04/19 04:35:02;;;;;;;14.50;10.93;;;10.80;99.90;;;;;;4989706;28;20620;-46
2023/04/19 04:37:30;;;;;;;19.77;11.80;;;11.00;99.90;;;;;;4976571;28;20560;-44
2023/04/19 04:39:55;;;;;;;15.13;11.45;;;11.00;99.90;;;;;;4970120;28;20173;-46
2023/04/19 04:42:21;;;;;;;15.82;12.43;;;11.00;99.90;;;;;;4970133;28;20541;-47
2023/04/19 04:44:46;;;;;;;15.20;11.73;;;11.00;99.90;;;;;;4970035;28;20176;-45
2023/04/19 04:47:12;;;;;;;18.23;13.45;;;11.10;99.90;;;;;;4980458;28;20632;-48
2023/04/19 04:49:38;;;;;;;17.65;12.27;;;11.00;99.90;;;;;;4989608;28;20676;-48
2023/04/19 04:52:04;;;;;;;15.70;12.43;;;11.00;99.90;;;;;;4989776;28;20165;-48
2023/04/19 04:54:29;;;;;;;19.55;12.38;;;11.00;99.90;;;;;;4989427;28;20628;-48
2023/04/19 04:56:55;;;;;;;18.05;11.75;;;10.90;99.90;;;;;;4980970;28;20629;-47
2023/04/19 04:59:21;;;;;;;13.80;10.57;;;;;;;;;;4969967;28;20660;-48
2023/04/19 05:01:46;;;;;;;13.68;11.35;;;10.90;99.90;;;;;;4970765;28;20203;-48
2023/04/19 05:04:12;;;;;;;16.23;11.27;;;10.90;99.90;;;;;;4973358;28;20259;-48
2023/04/19 05:06:40;;;;;;;16.38;12.20;;;;;;;;;;4991545;28;20180;-48
2023/04/19 05:09:06;;;;;;;18.38;12.07;;;10.90;99.90;;;;;;4992777;28;20754;-47
2023/04/19 05:11:32;;;;;;;17.98;12.90;;;11.00;99.90;;;;;;4993395;28;20263;-49
2023/04/19 05:13:58;;;;;;;14.30;11.50;;;;;;;;;;4987531;28;20217;-45
2023/04/19 05:16:25;;;;;;;15.32;12.02;;;10.80;99.90;;;;;;4954039;28;20218;-47
2023/04/19 05:18:50;;;;;;;15.20;11.52;;;11.00;99.90;;;;;;4960128;28;20677;-47
2023/04/19 05:21:16;;;;;;;17.35;11.73;;;11.00;99.90;;;;;;4991933;28;20181;-49
2023/04/19 05:23:42;;;;;;;16.77;12.20;;;10.90;99.90;;;;;;4991484;28;20165;-48
2023/04/19 05:26:11;;;;;;;15.65;11.52;;;11.00;99.90;;;;;;4973087;28;20203;-47
2023/04/19 05:28:37;;;;;;;13.82;10.60;;;11.00;99.90;;;;;;4976176;28;20215;-45
2023/04/19 05:31:03;;;;;;;18.60;11.23;;;10.90;99.90;;;;;;4986997;28;20177;-48
2023/04/19 05:33:29;;;;;;;17.63;11.15;;;11.00;99.90;;;;;;4977587;28;20223;-47
2023/04/19 05:35:54;;;;;;;16.35;11.00;;;11.10;99.90;;;;;;4972843;28;20260;-48
2023/04/19 05:38:20;;;;;;;12.43;9.98;;;11.10;99.90;;;;;;4972780;28;20178;-48
2023/04/19 05:40:45;;;;;;;13.88;10.30;;;11.10;99.90;;;;;;4974727;28;20181;-44
2023/04/19 05:43:11;;;;;;;12.07;8.93;;;11.10;99.90;;;;;;4985193;28;20205;-44
2023/04/19 05:45:37;;;;;;;11.82;9.18;;;;;;;;;;4990573;28;20200;-44
2023/04/19 05:48:03;;;;;;;10.35;8.10;;;11.10;99.90;;;;;;4992714;28;20235;-44
2023/04/19 05:50:28;;;;;;;12.15;8.60;;;11.10;99.90;;;;;;4990549;28;20640;-45
2023/04/19 05:52:54;;;;;;;13.90;8.10;;;11.00;99.90;;;;;;4989807;28;20672;-45
2023/04/19 05:55:19;;;;;;;9.95;7.88;;;11.10;99.90;;;;;;4988068;28;20168;-45
2023/04/19 05:57:45;;;;;;;9.38;7.35;;;;;;;;;;4979719;28;20181;-44
2023/04/19 06:00:11;;;;;;;12.50;7.35;;;11.20;99.90;;;;;;4988054;28;20253;-45
2023/04/19 06:02:37;;;;;;;11.65;5.80;;;11.10;99.90;;;;;;4972480;28;20180;-44
2023/04/19 06:05:03;;;;;;;9.23;5.43;;;11.00;99.90;;;;;;4977775;28;20180;-45
2023/04/19 06:07:30;;;;;;;8.25;5.50;;;11.00;99.90;;;;;;4991233;28;20286;-45
2023/04/19 06:09:55;;;;;;;7.25;6.03;;;11.10;99.90;;;;;;4991359;28;20256;-45
2023/04/19 06:12:21;;;;;;;9.68;6.45;;;11.10;99.90;;;;;;4972664;28;20270;-43
2023/04/19 06:14:46;;;;;;;8.15;5.25;;;11.10;99.90;;;;;;4973124;28;20207;-43
2023/04/19 06:17:15;;;;;;;6.45;5.20;;;;;;;;;;4975991;28;20166;-43
2023/04/19 06:19:41;;;;;;;10.85;5.63;;;;;;;;;;4972239;28;20164;-42
2023/04/19 06:22:07;;;;;;;9.13;4.85;;;;;;;;;;4972817;28;20185;-41
2023/04/19 06:24:33;;;;;;;7.05;5.05;;;;;;;;;;4972569;28;20172;-42
2023/04/19 06:26:59;;;;;;;8.35;5.93;;;;;;;;;;4990372;28;20704;-42
2023/04/19 06:29:25;;;;;;;7.85;5.55;;;;;;;;;;4990180;28;20555;-42
2023/04/19 06:31:50;;;;;;;7.20;5.25;;;11.20;99.90;;;;;;4988807;28;20177;-43
2023/04/19 06:34:16;;;;;;;8.88;5.65;;;11.20;99.90;;;;;;4991611;28;20177;-43
2023/04/19 06:36:41;;;;;;;7.93;5.22;;;11.20;99.90;;;;;;4988757;28;20179;-44
2023/04/19 06:39:08;;;;;;;8.23;5.40;;;;;;;;;;4990992;28;20173;-44
2023/04/19 06:41:34;;;;;;;7.68;5.60;;;11.40;99.90;;;;;;4989104;28;20183;-44
2023/04/19 06:44:00;;;;;;;8.45;5.15;;;11.20;99.90;;;;;;4982377;28;20275;-43
2023/04/19 06:46:26;;;;;;;6.43;4.75;;;11.50;99.90;;;;;;4989013;28;20217;-44
2023/04/19 06:48:51;;;;;;;7.25;4.90;;;11.30;99.90;;;;;;4971610;28;20632;-43
2023/04/19 06:51:17;;;;;;;7.38;5.00;;;;;;;;;;4971700;28;20208;-43
2023/04/19 06:53:44;;;;;;;7.28;5.13;;;;;;;;;;4962876;28;20234;-43
2023/04/19 06:56:09;;;;;;;4.93;4.13;;;11.90;99.90;;;;;;4990848;28;20192;-44
2023/04/19 06:58:35;;;;;;;7.57;5.00;;;;;;;;;;4976730;28;20208;-44
2023/04/19 07:01:03;;;;;;;8.13;4.65;;;12.10;99.90;;;;;;4996798;28;20608;-46
2023/04/19 07:03:29;;;;;;;7.55;4.90;;;;;;;;;;4988507;28;20184;-44
2023/04/19 07:05:57;;;;;;;5.88;4.80;;;12.30;99.90;;;;;;4982602;28;20630;-44
2023/04/19 07:08:23;;;;;;;5.97;4.45;;;;;;;;;;4968236;28;20574;-47
2023/04/19 07:10:49;;;;;;;7.43;5.10;;;12.30;99.90;;;;;;4969761;28;20177;-49
2023/04/19 07:13:15;;;;;;;7.53;4.80;;;12.80;99.90;;;;;;4984862;28;20183;-45
2023/04/19 07:15:40;;;;;;;6.82;5.10;;;;;;;;;;4988800;28;20787;-44
2023/04/19 07:18:09;;;;;;;7.97;5.57;;;;;;;;;;4969965;28;20169;-42
2023/04/19 07:20:35;;;;;;;7.53;5.22;;;;;;;;;;4969815;28;20536;-45
2023/04/19 07:23:01;;;;;;;6.55;4.00;;;;;;;;;;4983607;28;20181;-45
2023/04/19 07:25:27;;;;;;;6.88;5.00;;;12.60;99.90;;;;;;4969570;28;20199;-43
2023/04/19 07:27:53;;;;;;;5.32;4.57;;;12.60;99.90;;;;;;4969064;28;20212;-44
2023/04/19 07:30:20;;;;;;;5.72;5.03;;;;;;;;;;4969197;28;20243;-44
2023/04/19 07:32:45;;;;;;;8.75;5.00;;;12.80;99.90;;;;;;4981496;28;20204;-43
2023/04/19 07:35:11;;;;;;;6.68;5.20;;;12.90;99.90;;;;;;4988105;28;20242;-44
2023/04/19 07:37:37;;;;;;;10.23;6.30;;;;;;;;;;4988518;28;20168;-43
2023/04/19 07:40:04;;;;;;;6.65;4.88;;;;;;;;;;4988933;28;20168;-43
2023/04/19 07:42:29;;;;;;;8.88;4.53;;;13.00;99.90;;;;;;4977869;28;20173;-44
2023/04/19 07:44:55;;;;;;;5.95;4.97;;;;;;;;;;4969303;28;20727;-44
2023/04/19 07:47:21;;;;;;;5.55;3.97;;;13.10;99.90;;;;;;4968883;28;20185;-44
2023/04/19 07:49:51;;;;;;;9.45;5.13;;;;;;;;;;4969083;28;20205;-43
2023/04/19 07:52:17;;;;;;;6.53;4.95;;;13.00;99.90;;;;;;4976573;28;20184;-46
2023/04/19 07:54:43;;;;;;;6.65;4.38;;;;;;;;;;4988422;28;20204;-47
2023/04/19 07:57:09;;;;;;;9.25;4.60;;;;;;;;;;4988073;28;20201;-46
2023/04/19 07:59:35;;;;;;;7.50;5.68;;;;;;;;;;4988428;28;20168;-47
2023/04/19 08:02:01;;;;;;;6.88;4.57;;;;;;;;;;4981938;28;20174;-47
2023/04/19 08:04:26;;;;;;;6.97;5.25;;;13.00;99.90;;;;;;4968577;28;20779;-48
2023/04/19 08:06:52;;;;;;;7.00;5.13;;;12.90;99.90;;;;;;4968726;28;20600;-47
2023/04/19 08:09:18;;;;;;;5.60;3.63;;;;;;;;;;4968265;28;20748;-47
2023/04/19 08:11:44;;;;;;;6.25;4.20;;;;;;;;;;4971452;28;20287;-48
2023/04/19 08:14:11;;;;;;;10.32;5.30;;;;;;;;;;4988004;28;20183;-47
2023/04/19 08:16:37;;;;;;;8.38;5.30;;;;;;;;;;4988101;28;20194;-43
2023/04/19 08:19:02;;;;;;;6.95;4.60;;;;;;;;;;4988133;28;20240;-45
2023/04/19 08:21:28;;;;;;;7.75;5.20;;;;;;;;;;4973563;28;20189;-47
2023/04/19 08:23:55;;;;;;;5.72;5.07;;;;;;;;;;4968261;28;20173;-45
2023/04/19 08:26:21;;;;;;;6.80;4.50;;;13.50;99.90;;;;;;4968714;28;20170;-47
2023/04/19 08:28:49;;;;;;;6.38;5.03;;;;;;;;;;4968094;28;20231;-48
2023/04/19 08:31:15;;;;;;;7.07;5.65;;;;;;;;;;4967685;28;20169;-47
2023/04/19 08:33:41;;;;;;;6.53;4.03;;;13.50;99.90;;;;;;4968606;28;20192;-48
2023/04/19 08:36:07;;;;;;;5.78;4.30;;;;;;;;;;4966809;28;20545;-46
2023/04/19 08:38:33;;;;;;;7.75;4.82;;;13.80;99.90;;;;;;4968524;28;20207;-47
2023/04/19 08:40:59;;;;;;;6.90;4.72;;;;;;;;;;4984675;28;20185;-45
2023/04/19 08:43:27;;;;;;;6.15;4.82;;;;;;;;;;4987480;28;20186;-46
2023/04/19 08:45:54;;;;;;;9.02;5.00;;;;;;;;;;4987659;28;20172;-47
2023/04/19 08:48:21;;;;;;;6.43;4.45;;;;;;;;;;4987394;28;20287;-46
2023/04/19 08:50:48;;;;;;;5.57;4.50;;;14.10;99.90;;;;;;4970879;28;20189;-46
2023/04/19 08:53:15;;;;;;;6.47;4.15;;;14.10;99.90;;;;;;4968052;28;20224;-48
2023/04/19 08:55:42;;;;;;;6.30;4.43;;;;;;;;;;4967847;28;20542;-48
2023/04/19 08:58:08;;;;;;;9.13;4.47;;;;;;;;;;4967850;28;20239;-44
2023/04/19 09:00:37;;;;;;;6.82;4.38;;;;;;;;;;4981158;28;20572;-48
2023/04/19 09:03:05;;;;;;;5.00;3.75;;;;;;;;;;4987814;28;20172;-47
2023/04/19 09:05:31;;;;;;;7.60;4.43;;;;;;;;;;4987308;28;20264;-47
2023/04/19 09:08:19;;;;;;;8.40;4.57;;;14.40;99.90;;;;;;4987128;28;20275;-48
2023/04/19 09:10:52;;;;;;;4.68;3.60;;;;;;;;;;4973204;28;20234;-46
2023/04/19 09:13:18;;;;;;;7.00;4.03;;;;;;;;;;4967622;28;20223;-45
2023/04/19 09:15:43;;;;;;;5.47;4.25;;;14.50;99.90;;;;;;4967605;28;20174;-45
2023/04/19 09:18:10;;;;;;;3.58;3.08;;;14.40;99.90;;;;;;4967663;28;20180;-45
2023/04/19 09:20:40;;;;;;;5.60;3.83;;;;;;;;;;4980333;28;20177;-44
2023/04/19 09:23:08;;;;;;;5.55;3.30;;;;;;;;;;4987275;28;20169;-44
2023/04/19 09:25:35;;;;;;;5.20;3.63;;;;;;;;;;4987538;28;20279;-44
2023/04/19 09:28:13;;;;;;;5.10;3.72;;;14.20;99.30;;;;;;4987234;28;20193;-44
2023/04/19 09:30:40;;;;;;;4.72;2.97;;;;;;;;;;4973817;28;20177;-44
2023/04/19 09:33:07;;;;;;;5.72;3.75;;;14.60;99.10;;;;;;4967542;28;20162;-43
2023/04/19 09:35:48;;;;;;;6.65;3.60;;;;;;;;;;4968082;28;20217;-44
2023/04/19 09:38:15;;;;;;;5.15;3.45;;;14.40;98.70;;;;;;4973605;28;20259;-44
2023/04/19 09:40:41;;;;;;;4.05;3.15;;;;;;;;;;4986919;28;20165;-44
2023/04/19 09:43:08;;;;;;;5.07;3.45;;;;;;;;;;4986909;28;20173;-44
2023/04/19 09:45:42;;;;;;;6.95;2.88;;;14.50;95.30;;;;;;4987026;28;20188;-44
2023/04/19 09:48:08;;;;;;;4.90;3.00;;;;;;;;;;4986303;28;20668;-44
2023/04/19 09:50:34;;;;;;;11.13;3.65;;;;;;;;;;4990550;28;20180;-44
2023/04/19 09:53:00;;;;;;;6.70;3.67;;;14.80;95.50;;;;;;4990013;28;20293;-45
2023/04/19 09:55:26;;;;;;;5.70;3.50;;;;;;;;;;4989853;28;20188;-44
2023/04/19 09:57:52;;;;;;;5.22;3.47;;;15.20;94.90;;;;;;4989261;28;20640;-44
2023/04/19 10:00:20;;;;;;;5.47;3.83;;;;;;;;;;4989801;28;20165;-44
2023/04/19 10:02:53;;;;;;;6.05;2.90;;;14.90;93.80;;;;;;4990022;28;20200;-44
2023/04/19 10:05:19;;;;;;;5.10;3.67;;;;;;;;;;4989645;28;20252;-44
2023/04/19 10:07:45;;;;;;;4.65;2.88;;;;;;;;;;4989391;28;20187;-44
2023/04/19 10:10:11;;;;;;;4.13;2.97;;;;;;;;;;4989659;28;20228;-45
2023/04/19 10:12:38;;;;;;;3.92;3.08;;;;;;;;;;4989649;28;20229;-44
2023/04/19 10:15:05;;;;;;;3.20;2.83;;;15.00;91.20;;;;;;4990019;28;20177;-45
2023/04/19 10:17:31;;;;;;;5.18;3.35;;;;;;;;;;4989622;28;20173;-44
2023/04/19 10:20:01;;;;;;;7.40;3.05;;;;;;;;;;4989006;28;20263;-44
2023/04/19 10:22:27;;;;;;;5.50;2.80;;;;;;;;;;4989713;28;20655;-45
2023/04/19 10:25:12;;;;;;;5.95;2.85;;;;;;;;;;4989616;28;20173;-45
2023/04/19 10:27:39;;;;;;;5.05;3.00;;;;;;;;;;4988636;28;20809;-44
2023/04/19 10:30:11;;;;;;;4.53;3.28;;;;;;;;;;4989770;28;20177;-44
2023/04/19 10:32:42;;;;;;;4.65;3.30;;;15.40;91.00;;;;;;4989721;28;20208;-44
2023/04/19 10:35:18;;;;;;;10.85;3.85;;;;;;;;;;4989458;28;20208;-44
2023/04/19 10:38:05;;;;;;;3.63;3.33;;;15.50;90.00;;;;;;4985732;28;20263;-44
2023/04/19 10:40:55;;;;;;;4.63;3.45;;;;;;;;;;4989342;28;20165;-44
2023/04/19 10:43:21;;;;;;;4.13;3.20;;;15.60;90.30;;;;;;4997542;28;20820;-44
2023/04/19 10:45:47;;;;;;;4.97;3.10;;;;;;;;;;4989472;28;20195;-44
2023/04/19 10:48:34;;;;;;;3.80;2.70;;;15.30;86.30;;;;;;4971382;28;20825;-46
2023/04/19 10:51:14;;;;;;;3.20;2.78;;;;;;;;;;4970199;28;20184;-44
2023/04/19 10:53:44;;;;;;;4.18;2.50;;;;;;;;;;4969870;28;20531;-44
2023/04/19 10:56:10;;;;;;;7.57;2.72;;;15.30;84.60;;;;;;4970979;28;20169;-44
2023/04/19 10:59:07;;;;;;;3.22;2.45;;;15.30;83.40;;;;;;4988935;28;20252;-47
2023/04/19 11:01:39;;;;;;;4.38;3.55;;;15.20;82.80;;;;;;4989692;28;20176;-45
2023/04/19 11:04:06;;;;;;;3.05;2.10;;;;;;;;;;4989817;28;20238;-44
2023/04/19 11:06:33;;;;;;;2.72;2.17;;;15.10;81.00;;;;;;4985690;28;20173;-45
2023/04/19 11:08:59;;;;;;;3.00;2.30;;;15.00;79.40;;;;;;4969526;28;20233;-44
2023/04/19 11:11:25;;;;;;;4.00;2.58;;;15.20;78.40;;;;;;4970123;28;20265;-45
2023/04/19 11:13:54;;;;;;;2.83;2.13;;;15.30;78.10;;;;;;4969840;28;20730;-44
2023/04/19 11:16:20;;;;;;;2.63;2.17;;;;;;;;;;4971598;28;20176;-44
2023/04/19 11:18:45;;;;;;;3.53;2.00;;;15.10;75.30;;;;;;4989202;28;20570;-44
2023/04/19 11:21:17;;;;;;;6.10;2.05;;;;;;;;;;4988906;28;20552;-44
2023/04/19 11:23:43;;;;;;;3.28;1.60;;;15.30;74.10;;;;;;4988973;28;20173;-45
2023/04/19 11:26:11;;;;;;;3.83;1.67;;;;;;;;;;4988190;28;20183;-45
2023/04/19 11:28:40;;;;;;;2.13;1.80;;;15.50;72.30;;;;;;4969334;28;20209;-44
2023/04/19 11:31:06;;;;;;;5.25;1.83;;;15.60;74.50;;;;;;4969577;28;20162;-45
2023/04/19 11:33:35;;;;;;;3.25;1.88;;;;;;;;;;4969676;28;20668;-44
2023/04/19 11:36:02;;;;;;;2.00;1.77;;;15.50;70.00;;;;;;4968404;28;20506;-44
2023/04/19 11:38:28;;;;;;;1.67;1.58;;;15.70;69.40;;;;;;4969346;28;20177;-44
2023/04/19 11:40:58;;;;;;;3.70;1.80;;;;;;;;;;4969590;28;20174;-44
2023/04/19 11:43:34;;;;;;;2.72;1.90;;;15.80;69.90;;;;;;4969125;28;20570;-44
2023/04/19 11:46:08;;;;;;;1.67;1.58;;;;;;;;;;4969162;28;20252;-44
2023/04/19 11:48:34;;;;;;;6.40;1.95;;;;;;;;;;4964343;28;20241;-44
2023/04/19 11:51:01;;;;;;;3.38;1.83;;;;;;;;;;4949977;28;20174;-44
2023/04/19 11:53:27;;;;;;;2.75;1.75;;;16.00;69.30;;;;;;4950000;28;20676;-44
2023/04/19 11:56:05;;;;;;;4.43;2.00;;;15.80;67.80;;;;;;4949748;28;20535;-44
2023/04/19 11:58:56;;;;;;;2.85;1.63;;;15.70;65.00;;;;;;4987898;28;20177;-44
2023/04/19 12:01:24;;;;;;;3.67;2.00;;;;;;;;;;4988490;28;20175;-44
2023/04/19 12:03:55;;;;;;;3.47;2.13;;;15.40;64.80;;;;;;4988322;28;20276;-44
2023/04/19 12:06:24;;;;;;;2.80;1.58;;;;;;;;;;4988116;28;20256;-44
2023/04/19 12:08:51;;;;;;;2.25;1.92;;;15.20;64.20;;;;;;4988225;28;20229;-44
2023/04/19 12:11:20;;;;;;;4.03;2.28;;;;;;;;;;4987976;28;20192;-44
2023/04/19 12:13:46;;;;;;;2.45;1.90;;;;;;;;;;4988590;28;20179;-44
2023/04/19 12:16:12;;;;;;;2.90;1.75;;;15.60;65.10;;;;;;4987650;28;20169;-46
2023/04/19 12:18:43;;;;;;;3.05;2.00;;;15.80;65.80;;;;;;4968689;28;20513;-44
2023/04/19 12:21:09;;;;;;;6.68;1.90;;;;;;;;;;4968948;28;20169;-44
2023/04/19 12:23:35;;;;;;;3.17;2.47;;;;;;;;;;4969002;28;20174;-44
2023/04/19 12:26:07;;;;;;;2.38;2.10;;;;;;;;;;4968936;28;20166;-44
2023/04/19 12:28:33;;;;;;;4.65;2.25;;;;;;;;;;4969093;28;20216;-44
2023/04/19 12:30:58;;;;;;;2.95;1.70;;;15.50;65.40;;;;;;4968595;28;20173;-43
2023/04/19 12:33:24;;;;;;;3.63;2.30;;;;;;;;;;4968543;28;20169;-44
2023/04/19 12:35:50;;;;;;;3.40;2.30;;;15.80;65.40;;;;;;4968746;28;20177;-44
2023/04/19 12:38:16;;;;;;;3.88;2.63;;;;;;;;;;4968382;28;20185;-44
2023/04/19 12:40:42;;;;;;;3.30;2.30;;;16.00;67.00;;;;;;4968602;28;20172;-43
2023/04/19 12:43:08;;;;;;;3.72;2.53;;;;;;;;;;4968456;28;20173;-45
2023/04/19 12:45:34;;;;;;;3.88;2.28;;;;;;;;;;4968968;28;20186;-45
2023/04/19 12:47:59;;;;;;;3.55;2.28;;;15.80;65.60;;;;;;4968578;28;20201;-43
2023/04/19 12:50:25;;;;;;;3.65;2.53;;;;;;;;;;4968534;28;20173;-44
2023/04/19 12:52:52;;;;;;;2.70;2.40;;;15.60;65.40;;;;;;4968530;28;20546;-45
2023/04/19 12:55:18;;;;;;;4.28;2.30;;;15.40;64.80;;;;;;4972506;28;20175;-44
2023/04/19 12:57:44;;;;;;;4.85;2.45;;;16.00;66.10;;;;;;4987805;28;20180;-45
2023/04/19 13:00:11;;;;;;;6.50;2.60;;;;;;;;;;4987856;28;20581;-45
2023/04/19 13:02:37;;;;;;;2.85;2.40;;;;;;;;;;4987648;28;20652;-44
2023/04/19 13:05:04;;;;;;;4.97;3.13;;;16.10;67.50;;;;;;4988044;28;20184;-44
2023/04/19 13:07:30;;;;;;;3.45;2.70;;;;;;;;;;4980695;28;20568;-44
2023/04/19 13:09:56;;;;;;;10.68;3.15;;;16.10;64.90;;;;;;4967840;28;20256;-44
2023/04/19 13:12:22;;;;;;;6.20;2.70;;;15.80;65.90;;;;;;4968363;28;20585;-44